La Habra Heights, California
Current Conditions -  °F | °C
As of 12:53 AM on Wednesday 26 Nov 2014 (Local Time) from KFUL Reporting Station
Clear Clear  
Wind Chill: 52°   Ceiling: Unl
Heat Index: 52°   Visibility: 10mi
Dew Point: 34°   Wind: 0mph
Humidity: 50%   Direction: NA
Pressure: 30.24"   Gusts: NA
Location:  33.9421°N, 117.951°W
Report Text: KFUL 260853Z 00000KT 10SM CLR 11/01 A3024 RMK AO2 SLP239 T01110011 58012
Loading
Personal Weather Stations






























Interactive Weather Map New forecast layout! Learn more

10-Day Weather Forecast

Advertisements
Track Severe Weather on mobile